sensor_id;sensor_type;location;lat;lon;timestamp;temperature;humidity
21682;DHT22;11002;48.256;10.084;2023-06-01T00:00:35;12.00;60.10
21682;DHT22;11002;48.256;10.084;2023-06-01T00:03:05;12.00;60.10
21682;DHT22;11002;48.256;10.084;2023-06-01T00:05:32;11.90;60.00
21682;DHT22;11002;48.256;10.084;2023-06-01T00:07:59;11.90;60.00
21682;DHT22;11002;48.256;10.084;2023-06-01T00:10:27;11.90;61.00
21682;DHT22;11002;48.256;10.084;2023-06-01T00:12:54;11.80;61.30
21682;DHT22;11002;48.256;10.084;2023-06-01T00:15:23;11.80;61.90
21682;DHT22;11002;48.256;10.084;2023-06-01T00:17:50;11.80;62.50
21682;DHT22;11002;48.256;10.084;2023-06-01T00:20:18;11.80;62.50
21682;DHT22;11002;48.256;10.084;2023-06-01T00:22:45;11.80;62.90
21682;DHT22;11002;48.256;10.084;2023-06-01T00:25:14;11.80;63.00
21682;DHT22;11002;48.256;10.084;2023-06-01T00:27:41;11.70;62.70
21682;DHT22;11002;48.256;10.084;2023-06-01T00:30:10;11.60;63.80
21682;DHT22;11002;48.256;10.084;2023-06-01T00:32:39;11.70;64.40
21682;DHT22;11002;48.256;10.084;2023-06-01T00:35:07;11.60;64.50
21682;DHT22;11002;48.256;10.084;2023-06-01T00:37:34;11.60;64.20
21682;DHT22;11002;48.256;10.084;2023-06-01T00:40:01;11.70;64.10
21682;DHT22;11002;48.256;10.084;2023-06-01T00:42:30;11.70;63.40
21682;DHT22;11002;48.256;10.084;2023-06-01T00:44:57;11.70;63.10
21682;DHT22;11002;48.256;10.084;2023-06-01T00:47:25;11.70;63.00
21682;DHT22;11002;48.256;10.084;2023-06-01T00:49:54;11.70;62.90
21682;DHT22;11002;48.256;10.084;2023-06-01T00:52:22;11.70;63.10
21682;DHT22;11002;48.256;10.084;2023-06-01T00:54:50;11.60;63.10
21682;DHT22;11002;48.256;10.084;2023-06-01T00:57:18;11.50;63.70
21682;DHT22;11002;48.256;10.084;2023-06-01T00:59:47;11.50;64.10
21682;DHT22;11002;48.256;10.084;2023-06-01T01:02:14;11.50;64.10
21682;DHT22;11002;48.256;10.084;2023-06-01T01:04:44;11.50;64.40
21682;DHT22;11002;48.256;10.084;2023-06-01T01:07:19;11.50;64.10
21682;DHT22;11002;48.256;10.084;2023-06-01T01:09:53;11.50;64.00
21682;DHT22;11002;48.256;10.084;2023-06-01T01:12:26;11.50;63.50
21682;DHT22;11002;48.256;10.084;2023-06-01T01:14:59;11.50;63.60
21682;DHT22;11002;48.256;10.084;2023-06-01T01:17:33;11.50;63.80
21682;DHT22;11002;48.256;10.084;2023-06-01T01:20:08;11.50;63.60
21682;DHT22;11002;48.256;10.084;2023-06-01T01:23:01;11.50;64.50
21682;DHT22;11002;48.256;10.084;2023-06-01T01:25:50;11.50;63.80
21682;DHT22;11002;48.256;10.084;2023-06-01T01:28:32;11.40;64.00
21682;DHT22;11002;48.256;10.084;2023-06-01T01:31:01;11.40;64.60
21682;DHT22;11002;48.256;10.084;2023-06-01T01:33:31;11.30;65.10
21682;DHT22;11002;48.256;10.084;2023-06-01T01:35:59;11.30;65.50
21682;DHT22;11002;48.256;10.084;2023-06-01T01:38:28;11.20;66.10
21682;DHT22;11002;48.256;10.084;2023-06-01T01:40:55;11.10;66.00
21682;DHT22;11002;48.256;10.084;2023-06-01T01:43:24;11.00;66.00
21682;DHT22;11002;48.256;10.084;2023-06-01T01:45:57;11.00;65.90
21682;DHT22;11002;48.256;10.084;2023-06-01T01:48:31;10.90;67.50
21682;DHT22;11002;48.256;10.084;2023-06-01T01:51:03;10.90;68.50
21682;DHT22;11002;48.256;10.084;2023-06-01T01:53:33;11.00;69.30
21682;DHT22;11002;48.256;10.084;2023-06-01T01:56:03;11.00;69.30
21682;DHT22;11002;48.256;10.084;2023-06-01T01:58:31;11.00;69.30
21682;DHT22;11002;48.256;10.084;2023-06-01T02:01:01;11.00;69.00
21682;DHT22;11002;48.256;10.084;2023-06-01T02:03:29;11.00;68.80
21682;DHT22;11002;48.256;10.084;2023-06-01T02:05:57;11.00;68.70
21682;DHT22;11002;48.256;10.084;2023-06-01T02:08:24;11.00;68.70
21682;DHT22;11002;48.256;10.084;2023-06-01T02:10:52;11.00;68.70
21682;DHT22;11002;48.256;10.084;2023-06-01T02:13:20;11.00;68.50
21682;DHT22;11002;48.256;10.084;2023-06-01T02:15:47;10.90;68.60
21682;DHT22;11002;48.256;10.084;2023-06-01T02:18:16;10.90;68.70
21682;DHT22;11002;48.256;10.084;2023-06-01T02:20:44;11.00;68.80
21682;DHT22;11002;48.256;10.084;2023-06-01T02:23:12;11.00;68.50
21682;DHT22;11002;48.256;10.084;2023-06-01T02:25:39;10.90;68.20
21682;DHT22;11002;48.256;10.084;2023-06-01T02:28:06;10.90;68.30
21682;DHT22;11002;48.256;10.084;2023-06-01T02:30:33;10.90;68.60
21682;DHT22;11002;48.256;10.084;2023-06-01T02:33:01;10.90;68.60
21682;DHT22;11002;48.256;10.084;2023-06-01T02:35:30;10.80;68.70
21682;DHT22;11002;48.256;10.084;2023-06-01T02:37:57;10.70;69.10
21682;DHT22;11002;48.256;10.084;2023-06-01T02:40:24;10.70;70.40
21682;DHT22;11002;48.256;10.084;2023-06-01T02:42:52;10.60;70.80
21682;DHT22;11002;48.256;10.084;2023-06-01T02:45:19;10.60;71.40
21682;DHT22;11002;48.256;10.084;2023-06-01T02:47:47;10.60;72.30
21682;DHT22;11002;48.256;10.084;2023-06-01T02:50:14;10.60;72.30
21682;DHT22;11002;48.256;10.084;2023-06-01T02:52:46;10.70;72.40
21682;DHT22;11002;48.256;10.084;2023-06-01T02:55:14;10.70;71.60
21682;DHT22;11002;48.256;10.084;2023-06-01T02:58:00;10.60;71.30
21682;DHT22;11002;48.256;10.084;2023-06-01T03:00:31;10.60;71.60
21682;DHT22;11002;48.256;10.084;2023-06-01T03:02:58;10.60;71.60
21682;DHT22;11002;48.256;10.084;2023-06-01T03:05:25;10.50;71.50
21682;DHT22;11002;48.256;10.084;2023-06-01T03:08:17;10.40;72.00
21682;DHT22;11002;48.256;10.084;2023-06-01T03:10:45;10.30;72.00
21682;DHT22;11002;48.256;10.084;2023-06-01T03:13:18;10.20;72.80
21682;DHT22;11002;48.256;10.084;2023-06-01T03:15:45;10.20;73.50
21682;DHT22;11002;48.256;10.084;2023-06-01T03:18:12;10.10;74.00
21682;DHT22;11002;48.256;10.084;2023-06-01T03:20:40;10.00;74.70
21682;DHT22;11002;48.256;10.084;2023-06-01T03:23:07;9.90;77.10
21682;DHT22;11002;48.256;10.084;2023-06-01T03:25:36;9.90;78.40
21682;DHT22;11002;48.256;10.084;2023-06-01T03:28:03;9.90;79.30
21682;DHT22;11002;48.256;10.084;2023-06-01T03:30:31;9.90;79.30
21682;DHT22;11002;48.256;10.084;2023-06-01T03:32:58;9.90;80.60
21682;DHT22;11002;48.256;10.084;2023-06-01T03:35:26;10.00;80.10
21682;DHT22;11002;48.256;10.084;2023-06-01T03:37:53;10.00;79.60
21682;DHT22;11002;48.256;10.084;2023-06-01T03:40:21;10.10;78.40
21682;DHT22;11002;48.256;10.084;2023-06-01T03:42:50;10.10;78.40
21682;DHT22;11002;48.256;10.084;2023-06-01T03:45:17;10.20;78.50
21682;DHT22;11002;48.256;10.084;2023-06-01T03:47:44;10.20;78.50
21682;DHT22;11002;48.256;10.084;2023-06-01T03:50:12;10.20;78.50
21682;DHT22;11002;48.256;10.084;2023-06-01T03:52:40;10.30;78.30
21682;DHT22;11002;48.256;10.084;2023-06-01T03:55:08;10.50;78.10
21682;DHT22;11002;48.256;10.084;2023-06-01T03:58:00;10.20;78.50
21682;DHT22;11002;48.256;10.084;2023-06-01T04:00:29;10.20;79.30
21682;DHT22;11002;48.256;10.084;2023-06-01T04:02:58;10.20;78.50
21682;DHT22;11002;48.256;10.084;2023-06-01T04:05:26;10.30;78.60
21682;DHT22;11002;48.256;10.084;2023-06-01T04:07:55;10.40;78.70
21682;DHT22;11002;48.256;10.084;2023-06-01T04:10:23;10.50;78.80
21682;DHT22;11002;48.256;10.084;2023-06-01T04:12:51;10.60;78.30
21682;DHT22;11002;48.256;10.084;2023-06-01T04:15:22;10.70;77.10
21682;DHT22;11002;48.256;10.084;2023-06-01T04:17:50;10.80;76.50
21682;DHT22;11002;48.256;10.084;2023-06-01T04:20:18;11.00;75.80
21682;DHT22;11002;48.256;10.084;2023-06-01T04:22:47;11.10;74.80
21682;DHT22;11002;48.256;10.084;2023-06-01T04:25:15;11.20;73.70
21682;DHT22;11002;48.256;10.084;2023-06-01T04:27:49;11.30;73.00
21682;DHT22;11002;48.256;10.084;2023-06-01T04:30:17;11.40;73.10
21682;DHT22;11002;48.256;10.084;2023-06-01T04:32:47;11.60;71.20
21682;DHT22;11002;48.256;10.084;2023-06-01T04:35:15;11.70;69.40
21682;DHT22;11002;48.256;10.084;2023-06-01T04:37:43;11.90;66.80
21682;DHT22;11002;48.256;10.084;2023-06-01T04:40:12;12.00;66.90
21682;DHT22;11002;48.256;10.084;2023-06-01T04:42:40;12.00;66.80
21682;DHT22;11002;48.256;10.084;2023-06-01T04:45:09;12.20;65.10
21682;DHT22;11002;48.256;10.084;2023-06-01T04:47:37;12.40;63.70
21682;DHT22;11002;48.256;10.084;2023-06-01T04:50:09;12.60;62.20
21682;DHT22;11002;48.256;10.084;2023-06-01T04:52:38;12.80;60.90
21682;DHT22;11002;48.256;10.084;2023-06-01T04:55:06;13.00;59.60
21682;DHT22;11002;48.256;10.084;2023-06-01T04:57:34;13.10;58.40
21682;DHT22;11002;48.256;10.084;2023-06-01T05:00:03;13.20;57.70
21682;DHT22;11002;48.256;10.084;2023-06-01T05:02:37;13.40;57.40
21682;DHT22;11002;48.256;10.084;2023-06-01T05:05:05;13.60;56.00
21682;DHT22;11002;48.256;10.084;2023-06-01T05:07:34;13.80;55.50
21682;DHT22;11002;48.256;10.084;2023-06-01T05:10:03;14.00;55.70
21682;DHT22;11002;48.256;10.084;2023-06-01T05:12:37;14.20;54.00
21682;DHT22;11002;48.256;10.084;2023-06-01T05:15:08;14.30;53.10
21682;DHT22;11002;48.256;10.084;2023-06-01T05:17:37;14.50;49.80
21682;DHT22;11002;48.256;10.084;2023-06-01T05:20:10;14.70;50.00
21682;DHT22;11002;48.256;10.084;2023-06-01T05:22:40;14.90;49.30
21682;DHT22;11002;48.256;10.084;2023-06-01T05:25:09;15.10;47.40
21682;DHT22;11002;48.256;10.084;2023-06-01T05:27:37;15.20;46.60
21682;DHT22;11002;48.256;10.084;2023-06-01T05:30:06;15.50;45.00
21682;DHT22;11002;48.256;10.084;2023-06-01T05:32:33;15.60;44.60
21682;DHT22;11002;48.256;10.084;2023-06-01T05:35:08;15.90;42.40
21682;DHT22;11002;48.256;10.084;2023-06-01T05:37:36;15.90;43.30
21682;DHT22;11002;48.256;10.084;2023-06-01T05:40:07;15.90;43.70
21682;DHT22;11002;48.256;10.084;2023-06-01T05:42:36;15.90;41.80
21682;DHT22;11002;48.256;10.084;2023-06-01T05:45:04;16.00;41.50
21682;DHT22;11002;48.256;10.084;2023-06-01T05:47:31;16.00;42.50
21682;DHT22;11002;48.256;10.084;2023-06-01T05:49:59;16.00;43.10
21682;DHT22;11002;48.256;10.084;2023-06-01T05:52:26;16.00;42.50
21682;DHT22;11002;48.256;10.084;2023-06-01T05:54:54;16.10;41.10
21682;DHT22;11002;48.256;10.084;2023-06-01T05:57:23;16.30;40.60
21682;DHT22;11002;48.256;10.084;2023-06-01T05:59:50;16.60;37.40
21682;DHT22;11002;48.256;10.084;2023-06-01T06:02:20;16.80;36.80
21682;DHT22;11002;48.256;10.084;2023-06-01T06:04:47;16.80;38.30
21682;DHT22;11002;48.256;10.084;2023-06-01T06:07:14;16.70;38.60
21682;DHT22;11002;48.256;10.084;2023-06-01T06:09:42;16.80;38.50
21682;DHT22;11002;48.256;10.084;2023-06-01T06:12:09;16.90;38.00
21682;DHT22;11002;48.256;10.084;2023-06-01T06:14:38;17.10;37.30
21682;DHT22;11002;48.256;10.084;2023-06-01T06:17:05;17.30;35.50
21682;DHT22;11002;48.256;10.084;2023-06-01T06:19:32;17.40;37.30
21682;DHT22;11002;48.256;10.084;2023-06-01T06:22:00;17.50;36.20
21682;DHT22;11002;48.256;10.084;2023-06-01T06:24:27;17.60;35.50
21682;DHT22;11002;48.256;10.084;2023-06-01T06:26:54;17.80;34.60
21682;DHT22;11002;48.256;10.084;2023-06-01T06:29:22;17.90;34.80
21682;DHT22;11002;48.256;10.084;2023-06-01T06:31:50;17.90;34.50
21682;DHT22;11002;48.256;10.084;2023-06-01T06:34:18;18.10;33.60
21682;DHT22;11002;48.256;10.084;2023-06-01T06:36:45;18.20;33.50
21682;DHT22;11002;48.256;10.084;2023-06-01T06:39:12;18.40;33.70
21682;DHT22;11002;48.256;10.084;2023-06-01T06:41:40;18.50;34.50
21682;DHT22;11002;48.256;10.084;2023-06-01T06:44:07;18.60;32.50
21682;DHT22;11002;48.256;10.084;2023-06-01T06:46:35;18.80;32.60
21682;DHT22;11002;48.256;10.084;2023-06-01T06:49:04;18.80;31.50
21682;DHT22;11002;48.256;10.084;2023-06-01T06:51:31;19.10;30.20
21682;DHT22;11002;48.256;10.084;2023-06-01T06:53:58;19.20;29.10
21682;DHT22;11002;48.256;10.084;2023-06-01T06:56:28;19.30;29.70
21682;DHT22;11002;48.256;10.084;2023-06-01T06:58:55;19.70;28.50
21682;DHT22;11002;48.256;10.084;2023-06-01T07:01:22;19.90;28.70
21682;DHT22;11002;48.256;10.084;2023-06-01T07:03:51;20.30;27.70
21682;DHT22;11002;48.256;10.084;2023-06-01T07:06:20;20.90;26.70
21682;DHT22;11002;48.256;10.084;2023-06-01T07:08:48;21.30;25.30
21682;DHT22;11002;48.256;10.084;2023-06-01T07:11:15;21.50;25.60
21682;DHT22;11002;48.256;10.084;2023-06-01T07:13:43;21.80;24.60
21682;DHT22;11002;48.256;10.084;2023-06-01T07:16:10;21.70;26.10
21682;DHT22;11002;48.256;10.084;2023-06-01T07:18:38;21.70;24.50
21682;DHT22;11002;48.256;10.084;2023-06-01T07:21:06;21.80;24.60
21682;DHT22;11002;48.256;10.084;2023-06-01T07:23:34;22.30;24.00
21682;DHT22;11002;48.256;10.084;2023-06-01T07:26:02;22.70;24.00
21682;DHT22;11002;48.256;10.084;2023-06-01T07:28:29;22.80;23.10
21682;DHT22;11002;48.256;10.084;2023-06-01T07:30:58;22.90;22.30
21682;DHT22;11002;48.256;10.084;2023-06-01T07:33:26;23.30;20.70
21682;DHT22;11002;48.256;10.084;2023-06-01T07:35:55;23.70;20.40
21682;DHT22;11002;48.256;10.084;2023-06-01T07:38:24;23.90;21.60
21682;DHT22;11002;48.256;10.084;2023-06-01T07:40:53;24.40;21.60
21682;DHT22;11002;48.256;10.084;2023-06-01T07:43:20;25.20;17.80
21682;DHT22;11002;48.256;10.084;2023-06-01T07:45:48;25.90;16.10
21682;DHT22;11002;48.256;10.084;2023-06-01T07:48:15;26.30;16.30
21682;DHT22;11002;48.256;10.084;2023-06-01T07:50:42;26.10;16.90
21682;DHT22;11002;48.256;10.084;2023-06-01T07:53:10;26.20;16.50
21682;DHT22;11002;48.256;10.084;2023-06-01T07:55:38;26.80;16.60
21682;DHT22;11002;48.256;10.084;2023-06-01T07:58:06;27.00;16.20
21682;DHT22;11002;48.256;10.084;2023-06-01T08:00:34;27.10;16.80
21682;DHT22;11002;48.256;10.084;2023-06-01T08:03:02;27.60;15.40
21682;DHT22;11002;48.256;10.084;2023-06-01T08:05:33;28.10;15.00
21682;DHT22;11002;48.256;10.084;2023-06-01T08:08:02;28.60;12.60
21682;DHT22;11002;48.256;10.084;2023-06-01T08:10:29;29.10;12.20
21682;DHT22;11002;48.256;10.084;2023-06-01T08:12:57;28.60;12.90
21682;DHT22;11002;48.256;10.084;2023-06-01T08:15:26;28.70;11.30
21682;DHT22;11002;48.256;10.084;2023-06-01T08:17:54;28.70;11.40
21682;DHT22;11002;48.256;10.084;2023-06-01T08:20:21;29.00;13.70
21682;DHT22;11002;48.256;10.084;2023-06-01T08:22:49;29.60;10.70
21682;DHT22;11002;48.256;10.084;2023-06-01T08:25:17;29.60;10.80
21682;DHT22;11002;48.256;10.084;2023-06-01T08:27:44;29.90;9.60
21682;DHT22;11002;48.256;10.084;2023-06-01T08:30:13;30.30;9.70
21682;DHT22;11002;48.256;10.084;2023-06-01T08:32:42;30.30;9.60
21682;DHT22;11002;48.256;10.084;2023-06-01T08:35:09;30.20;8.70
21682;DHT22;11002;48.256;10.084;2023-06-01T08:37:36;30.40;10.10
21682;DHT22;11002;48.256;10.084;2023-06-01T08:40:05;30.70;8.40
21682;DHT22;11002;48.256;10.084;2023-06-01T08:42:39;30.70;8.50
21682;DHT22;11002;48.256;10.084;2023-06-01T08:45:11;30.90;8.60
21682;DHT22;11002;48.256;10.084;2023-06-01T08:47:39;31.40;7.40
21682;DHT22;11002;48.256;10.084;2023-06-01T08:50:10;31.40;7.70
21682;DHT22;11002;48.256;10.084;2023-06-01T08:52:38;31.60;7.50
21682;DHT22;11002;48.256;10.084;2023-06-01T08:55:08;31.90;7.70
21682;DHT22;11002;48.256;10.084;2023-06-01T08:57:36;31.90;7.70
21682;DHT22;11002;48.256;10.084;2023-06-01T09:00:04;32.20;7.80
21682;DHT22;11002;48.256;10.084;2023-06-01T09:02:33;32.40;6.60
21682;DHT22;11002;48.256;10.084;2023-06-01T09:05:01;33.00;5.60
21682;DHT22;11002;48.256;10.084;2023-06-01T09:07:30;33.10;5.40
21682;DHT22;11002;48.256;10.084;2023-06-01T09:09:57;33.80;3.60
21682;DHT22;11002;48.256;10.084;2023-06-01T09:12:26;34.20;2.40
21682;DHT22;11002;48.256;10.084;2023-06-01T09:15:09;33.90;4.80
21682;DHT22;11002;48.256;10.084;2023-06-01T09:17:38;34.80;1.90
21682;DHT22;11002;48.256;10.084;2023-06-01T09:20:10;34.90;1.80
21682;DHT22;11002;48.256;10.084;2023-06-01T09:22:40;34.60;3.90
21682;DHT22;11002;48.256;10.084;2023-06-01T09:25:09;34.30;2.90
21682;DHT22;11002;48.256;10.084;2023-06-01T09:27:46;34.40;2.30
21682;DHT22;11002;48.256;10.084;2023-06-01T09:30:13;35.10;1.20
21682;DHT22;11002;48.256;10.084;2023-06-01T09:32:41;35.30;1.30
21682;DHT22;11002;48.256;10.084;2023-06-01T09:35:10;35.20;2.60
21682;DHT22;11002;48.256;10.084;2023-06-01T09:37:41;35.60;1.00
21682;DHT22;11002;48.256;10.084;2023-06-01T09:40:21;35.30;1.00
21682;DHT22;11002;48.256;10.084;2023-06-01T09:42:48;35.40;1.00
21682;DHT22;11002;48.256;10.084;2023-06-01T09:45:19;35.80;1.00
21682;DHT22;11002;48.256;10.084;2023-06-01T09:47:47;35.90;1.00
21682;DHT22;11002;48.256;10.084;2023-06-01T09:50:34;36.30;1.00
21682;DHT22;11002;48.256;10.084;2023-06-01T09:53:03;36.50;1.00
21682;DHT22;11002;48.256;10.084;2023-06-01T09:55:31;37.00;1.00
21682;DHT22;11002;48.256;10.084;2023-06-01T09:58:19;37.60;1.00
21682;DHT22;11002;48.256;10.084;2023-06-01T10:00:48;36.80;1.00
21682;DHT22;11002;48.256;10.084;2023-06-01T10:03:17;37.20;1.00
21682;DHT22;11002;48.256;10.084;2023-06-01T10:05:45;38.00;1.00
21682;DHT22;11002;48.256;10.084;2023-06-01T10:08:16;37.60;1.00
21682;DHT22;11002;48.256;10.084;2023-06-01T10:10:45;37.90;1.00
21682;DHT22;11002;48.256;10.084;2023-06-01T10:13:12;37.70;1.00
21682;DHT22;11002;48.256;10.084;2023-06-01T10:15:40;37.90;1.00
21682;DHT22;11002;48.256;10.084;2023-06-01T10:18:08;38.30;1.00
21682;DHT22;11002;48.256;10.084;2023-06-01T10:20:36;38.80;1.00
21682;DHT22;11002;48.256;10.084;2023-06-01T10:23:05;39.10;1.00
21682;DHT22;11002;48.256;10.084;2023-06-01T10:25:40;38.90;1.00
21682;DHT22;11002;48.256;10.084;2023-06-01T10:28:10;39.20;1.00
21682;DHT22;11002;48.256;10.084;2023-06-01T10:30:38;38.30;1.00
21682;DHT22;11002;48.256;10.084;2023-06-01T10:33:06;38.10;1.00
21682;DHT22;11002;48.256;10.084;2023-06-01T10:36:00;38.70;1.00
21682;DHT22;11002;48.256;10.084;2023-06-01T10:38:31;39.40;1.00
21682;DHT22;11002;48.256;10.084;2023-06-01T10:41:27;38.00;1.00
21682;DHT22;11002;48.256;10.084;2023-06-01T10:43:56;37.90;1.00
21682;DHT22;11002;48.256;10.084;2023-06-01T10:46:41;38.00;1.00
21682;DHT22;11002;48.256;10.084;2023-06-01T10:49:08;38.50;1.00
21682;DHT22;11002;48.256;10.084;2023-06-01T10:51:36;38.70;1.00
21682;DHT22;11002;48.256;10.084;2023-06-01T10:54:26;38.80;1.00
21682;DHT22;11002;48.256;10.084;2023-06-01T10:57:20;38.40;1.00
21682;DHT22;11002;48.256;10.084;2023-06-01T11:00:10;37.70;1.00
21682;DHT22;11002;48.256;10.084;2023-06-01T11:02:47;37.60;1.00
21682;DHT22;11002;48.256;10.084;2023-06-01T11:05:41;37.60;1.00
21682;DHT22;11002;48.256;10.084;2023-06-01T11:11:10;38.30;1.00
21682;DHT22;11002;48.256;10.084;2023-06-01T11:13:38;39.10;1.00
21682;DHT22;11002;48.256;10.084;2023-06-01T11:16:31;39.10;1.00
21682;DHT22;11002;48.256;10.084;2023-06-01T11:19:00;39.00;1.00
21682;DHT22;11002;48.256;10.084;2023-06-01T11:21:30;38.90;1.00
21682;DHT22;11002;48.256;10.084;2023-06-01T11:24:00;39.20;1.00
21682;DHT22;11002;48.256;10.084;2023-06-01T11:26:32;40.30;1.00
21682;DHT22;11002;48.256;10.084;2023-06-01T11:29:06;40.00;1.00
21682;DHT22;11002;48.256;10.084;2023-06-01T11:31:42;40.00;1.00
21682;DHT22;11002;48.256;10.084;2023-06-01T11:34:11;39.60;1.00
21682;DHT22;11002;48.256;10.084;2023-06-01T11:36:42;39.50;1.00
21682;DHT22;11002;48.256;10.084;2023-06-01T11:39:17;38.90;1.00
21682;DHT22;11002;48.256;10.084;2023-06-01T11:41:47;39.30;1.00
21682;DHT22;11002;48.256;10.084;2023-06-01T11:44:16;39.40;1.00
21682;DHT22;11002;48.256;10.084;2023-06-01T11:46:54;39.90;1.00
21682;DHT22;11002;48.256;10.084;2023-06-01T11:49:22;40.00;1.00
21682;DHT22;11002;48.256;10.084;2023-06-01T11:51:49;40.20;1.00
21682;DHT22;11002;48.256;10.084;2023-06-01T11:54:27;39.20;1.00
21682;DHT22;11002;48.256;10.084;2023-06-01T11:56:55;37.70;1.00
21682;DHT22;11002;48.256;10.084;2023-06-01T11:59:24;37.30;1.00
21682;DHT22;11002;48.256;10.084;2023-06-01T12:01:53;37.70;1.00
21682;DHT22;11002;48.256;10.084;2023-06-01T12:04:22;38.00;1.00
21682;DHT22;11002;48.256;10.084;2023-06-01T12:06:51;38.60;1.00
21682;DHT22;11002;48.256;10.084;2023-06-01T12:09:19;38.00;1.00
21682;DHT22;11002;48.256;10.084;2023-06-01T12:11:47;38.20;1.00
21682;DHT22;11002;48.256;10.084;2023-06-01T12:14:15;38.70;1.00
21682;DHT22;11002;48.256;10.084;2023-06-01T12:16:57;38.50;1.00
21682;DHT22;11002;48.256;10.084;2023-06-01T12:19:27;39.10;1.00
21682;DHT22;11002;48.256;10.084;2023-06-01T12:21:56;39.50;1.00
21682;DHT22;11002;48.256;10.084;2023-06-01T12:24:28;39.60;1.00
21682;DHT22;11002;48.256;10.084;2023-06-01T12:26:57;39.70;1.00
21682;DHT22;11002;48.256;10.084;2023-06-01T12:29:35;40.10;1.00
21682;DHT22;11002;48.256;10.084;2023-06-01T12:32:05;40.10;1.00
21682;DHT22;11002;48.256;10.084;2023-06-01T12:34:34;40.30;1.00
21682;DHT22;11002;48.256;10.084;2023-06-01T12:37:13;40.10;1.00
21682;DHT22;11002;48.256;10.084;2023-06-01T12:39:40;39.80;1.00
21682;DHT22;11002;48.256;10.084;2023-06-01T12:42:08;39.70;1.00
21682;DHT22;11002;48.256;10.084;2023-06-01T12:44:37;39.20;1.00
21682;DHT22;11002;48.256;10.084;2023-06-01T12:47:08;38.70;1.00
21682;DHT22;11002;48.256;10.084;2023-06-01T12:49:36;37.60;1.00
21682;DHT22;11002;48.256;10.084;2023-06-01T12:52:06;36.80;1.00
21682;DHT22;11002;48.256;10.084;2023-06-01T12:54:33;35.50;1.00
21682;DHT22;11002;48.256;10.084;2023-06-01T12:57:00;34.70;1.90
21682;DHT22;11002;48.256;10.084;2023-06-01T12:59:28;34.10;2.50
21682;DHT22;11002;48.256;10.084;2023-06-01T13:01:55;33.30;3.60
21682;DHT22;11002;48.256;10.084;2023-06-01T13:04:24;32.70;3.90
21682;DHT22;11002;48.256;10.084;2023-06-01T13:06:52;32.20;5.10
21682;DHT22;11002;48.256;10.084;2023-06-01T13:09:19;31.70;6.50
21682;DHT22;11002;48.256;10.084;2023-06-01T13:11:46;31.40;5.30
21682;DHT22;11002;48.256;10.084;2023-06-01T13:14:14;31.00;7.20
21682;DHT22;11002;48.256;10.084;2023-06-01T13:16:41;30.70;7.10
21682;DHT22;11002;48.256;10.084;2023-06-01T13:19:08;30.40;6.90
21682;DHT22;11002;48.256;10.084;2023-06-01T13:21:37;30.00;8.50
21682;DHT22;11002;48.256;10.084;2023-06-01T13:24:05;30.00;8.60
21682;DHT22;11002;48.256;10.084;2023-06-01T13:26:33;29.70;7.20
21682;DHT22;11002;48.256;10.084;2023-06-01T13:29:00;29.60;8.10
21682;DHT22;11002;48.256;10.084;2023-06-01T13:31:28;29.40;7.90
21682;DHT22;11002;48.256;10.084;2023-06-01T13:33:56;29.20;9.20
21682;DHT22;11002;48.256;10.084;2023-06-01T13:36:24;29.20;9.10
21682;DHT22;11002;48.256;10.084;2023-06-01T13:38:53;29.10;8.00
21682;DHT22;11002;48.256;10.084;2023-06-01T13:41:20;28.90;7.90
21682;DHT22;11002;48.256;10.084;2023-06-01T13:43:47;28.70;10.00
21682;DHT22;11002;48.256;10.084;2023-06-01T13:46:15;28.40;9.20
21682;DHT22;11002;48.256;10.084;2023-06-01T13:48:42;28.20;8.80
21682;DHT22;11002;48.256;10.084;2023-06-01T13:51:09;28.00;9.80
21682;DHT22;11002;48.256;10.084;2023-06-01T13:53:36;27.90;11.20
21682;DHT22;11002;48.256;10.084;2023-06-01T13:56:06;27.70;11.70
21682;DHT22;11002;48.256;10.084;2023-06-01T13:58:33;27.70;12.10
21682;DHT22;11002;48.256;10.084;2023-06-01T14:01:01;27.70;12.40
21682;DHT22;11002;48.256;10.084;2023-06-01T14:03:28;27.80;13.00
21682;DHT22;11002;48.256;10.084;2023-06-01T14:05:56;27.70;11.40
21682;DHT22;11002;48.256;10.084;2023-06-01T14:08:23;27.60;11.80
21682;DHT22;11002;48.256;10.084;2023-06-01T14:10:50;27.50;11.90
21682;DHT22;11002;48.256;10.084;2023-06-01T14:13:19;27.30;12.10
21682;DHT22;11002;48.256;10.084;2023-06-01T14:15:46;27.10;11.50
21682;DHT22;11002;48.256;10.084;2023-06-01T14:18:14;26.90;12.10
21682;DHT22;11002;48.256;10.084;2023-06-01T14:20:41;26.70;11.70
21682;DHT22;11002;48.256;10.084;2023-06-01T14:23:08;26.70;11.20
21682;DHT22;11002;48.256;10.084;2023-06-01T14:25:37;26.70;10.40
21682;DHT22;11002;48.256;10.084;2023-06-01T14:28:04;26.60;10.30
21682;DHT22;11002;48.256;10.084;2023-06-01T14:30:33;26.60;12.90
21682;DHT22;11002;48.256;10.084;2023-06-01T14:33:00;26.60;9.80
21682;DHT22;11002;48.256;10.084;2023-06-01T14:35:28;26.60;9.30
21682;DHT22;11002;48.256;10.084;2023-06-01T14:37:55;26.60;10.00
21682;DHT22;11002;48.256;10.084;2023-06-01T14:40:23;26.50;9.70
21682;DHT22;11002;48.256;10.084;2023-06-01T14:42:50;26.50;11.00
21682;DHT22;11002;48.256;10.084;2023-06-01T14:45:18;26.50;9.90
21682;DHT22;11002;48.256;10.084;2023-06-01T14:47:49;26.50;7.80
21682;DHT22;11002;48.256;10.084;2023-06-01T14:50:16;26.50;8.40
21682;DHT22;11002;48.256;10.084;2023-06-01T14:52:44;26.40;10.40
21682;DHT22;11002;48.256;10.084;2023-06-01T14:55:11;26.30;8.40
21682;DHT22;11002;48.256;10.084;2023-06-01T14:57:41;26.30;7.60
21682;DHT22;11002;48.256;10.084;2023-06-01T15:00:09;26.20;7.70
21682;DHT22;11002;48.256;10.084;2023-06-01T15:02:37;26.10;9.30
21682;DHT22;11002;48.256;10.084;2023-06-01T15:05:06;26.00;10.70
21682;DHT22;11002;48.256;10.084;2023-06-01T15:07:34;26.00;11.60
21682;DHT22;11002;48.256;10.084;2023-06-01T15:10:01;26.20;11.20
21682;DHT22;11002;48.256;10.084;2023-06-01T15:12:28;26.30;11.00
21682;DHT22;11002;48.256;10.084;2023-06-01T15:14:56;26.30;9.10
21682;DHT22;11002;48.256;10.084;2023-06-01T15:17:23;26.30;11.10
21682;DHT22;11002;48.256;10.084;2023-06-01T15:19:50;26.40;10.70
21682;DHT22;11002;48.256;10.084;2023-06-01T15:22:19;26.40;10.70
21682;DHT22;11002;48.256;10.084;2023-06-01T15:24:46;26.50;10.90
21682;DHT22;11002;48.256;10.084;2023-06-01T15:27:14;26.50;10.00
21682;DHT22;11002;48.256;10.084;2023-06-01T15:29:41;26.60;12.30
21682;DHT22;11002;48.256;10.084;2023-06-01T15:32:08;26.40;9.70
21682;DHT22;11002;48.256;10.084;2023-06-01T15:34:35;26.40;9.60
21682;DHT22;11002;48.256;10.084;2023-06-01T15:37:06;26.20;12.00
21682;DHT22;11002;48.256;10.084;2023-06-01T15:39:35;26.10;11.90